Hlavní strana
METAR-TAF:

METAR-TAF

Letiště :

Danville, Illinois, Spojené státy americké

zeměpisná šířka: 40-11-58N, zeměpisná délka: 087-35-44W, výška: 212 m

Aktuální stav počasí

Zpráva byla vytvořena před 27 minutami, v 22:35 UTC
Západojihozápadní vítr 7 kt
Teplota 0°C
Vlhkost vzduchu 93%
Tlak 1015 hPa
Viditelnost: 11.3 km
Polojasno ve výšce 1000 ft
Zataženo ve výšce 1700 ft

METAR: KDNV 152235Z AUTO 24007KT 7SM SCT010 OVC017 00/M01 A2996 RMK AO2 T10021012

Čas: 17:02 (23:02 UTC)


TAF: chybějící

Stav a předpovědi počasí z více než 4 000 letišť (zprávy METAR a TAF).

Červené a žluté tečky na mapě představují dostupné meteorologické stanice.

Když kurzor umístíte na tečku, zobrazí se název stanice.

Pak kliknutím zobrazíte stav a předpověď počasí.

Chcete-li změnit mapu, kliknutím na zelené tlačítko se znaménkem +mapu přiblížíte, kliknutím na zelené tlačítko se znaménkem – mapu oddálíte a kliknutím na zelené šipky přejdete na sousední mapy.


METAR-TAF: